sensor_id;sensor_type;location;lat;lon;timestamp;pressure;altitude;pressure_sealevel;temperature;humidity
62124;BME280;48110;47.532;19.078;2023-07-13T00:01:28;100121.59;;;22.79;100.00
62124;BME280;48110;47.532;19.078;2023-07-13T00:04:31;100106.38;;;22.51;100.00
62124;BME280;48110;47.532;19.078;2023-07-13T00:07:35;100108.37;;;22.17;100.00
62124;BME280;48110;47.532;19.078;2023-07-13T00:10:42;100127.16;;;22.07;100.00
62124;BME280;48110;47.532;19.078;2023-07-13T00:13:45;100114.81;;;21.94;100.00
62124;BME280;48110;47.532;19.078;2023-07-13T00:16:48;100092.63;;;21.76;100.00
62124;BME280;48110;47.532;19.078;2023-07-13T00:19:51;100062.31;;;21.52;100.00
62124;BME280;48110;47.532;19.078;2023-07-13T00:22:54;100073.91;;;21.36;100.00
62124;BME280;48110;47.532;19.078;2023-07-13T00:26:01;100069.66;;;21.40;100.00
62124;BME280;48110;47.532;19.078;2023-07-13T00:29:05;100046.19;;;21.40;100.00
62124;BME280;48110;47.532;19.078;2023-07-13T00:32:11;100023.87;;;21.45;100.00
62124;BME280;48110;47.532;19.078;2023-07-13T00:35:15;100015.97;;;21.21;100.00
62124;BME280;48110;47.532;19.078;2023-07-13T00:38:18;99998.63;;;21.34;100.00
62124;BME280;48110;47.532;19.078;2023-07-13T00:41:23;99991.84;;;21.32;100.00
62124;BME280;48110;47.532;19.078;2023-07-13T00:44:26;99977.44;;;21.43;100.00
62124;BME280;48110;47.532;19.078;2023-07-13T00:47:30;99978.41;;;21.53;100.00
62124;BME280;48110;47.532;19.078;2023-07-13T00:50:33;99982.38;;;21.67;100.00
62124;BME280;48110;47.532;19.078;2023-07-13T00:53:36;99980.28;;;21.75;100.00
62124;BME280;48110;47.532;19.078;2023-07-13T00:56:41;99972.63;;;21.88;100.00
62124;BME280;48110;47.532;19.078;2023-07-13T00:59:52;99966.16;;;21.89;100.00
62124;BME280;48110;47.532;19.078;2023-07-13T01:02:56;99957.31;;;21.94;100.00
62124;BME280;48110;47.532;19.078;2023-07-13T01:06:01;99959.34;;;22.03;100.00
62124;BME280;48110;47.532;19.078;2023-07-13T01:09:04;99948.53;;;22.03;100.00
62124;BME280;48110;47.532;19.078;2023-07-13T01:12:09;99949.91;;;22.06;100.00
62124;BME280;48110;47.532;19.078;2023-07-13T01:18:37;99972.22;;;21.96;100.00
62124;BME280;48110;47.532;19.078;2023-07-13T01:21:43;99971.16;;;21.97;100.00
62124;BME280;48110;47.532;19.078;2023-07-13T01:24:47;99969.56;;;21.80;100.00
62124;BME280;48110;47.532;19.078;2023-07-13T01:27:53;99956.37;;;21.83;100.00
62124;BME280;48110;47.532;19.078;2023-07-13T01:30:57;99982.28;;;21.84;100.00
62124;BME280;48110;47.532;19.078;2023-07-13T01:34:01;99959.44;;;21.92;100.00
62124;BME280;48110;47.532;19.078;2023-07-13T01:37:05;99950.47;;;21.86;100.00
62124;BME280;48110;47.532;19.078;2023-07-13T01:40:08;99947.94;;;21.80;100.00
62124;BME280;48110;47.532;19.078;2023-07-13T01:43:11;99955.91;;;21.69;100.00
62124;BME280;48110;47.532;19.078;2023-07-13T01:46:15;99946.69;;;21.65;100.00
62124;BME280;48110;47.532;19.078;2023-07-13T01:49:25;99941.50;;;21.59;100.00
62124;BME280;48110;47.532;19.078;2023-07-13T01:52:28;99933.31;;;21.54;100.00
62124;BME280;48110;47.532;19.078;2023-07-13T01:55:34;99933.81;;;21.51;100.00
62124;BME280;48110;47.532;19.078;2023-07-13T01:58:37;99929.34;;;21.40;100.00
62124;BME280;48110;47.532;19.078;2023-07-13T02:01:40;99924.97;;;21.34;100.00
62124;BME280;48110;47.532;19.078;2023-07-13T02:04:43;99918.16;;;21.31;100.00
62124;BME280;48110;47.532;19.078;2023-07-13T02:07:47;99919.97;;;21.25;100.00
62124;BME280;48110;47.532;19.078;2023-07-13T02:10:50;99917.34;;;21.31;100.00
62124;BME280;48110;47.532;19.078;2023-07-13T02:13:52;99916.63;;;21.57;100.00
62124;BME280;48110;47.532;19.078;2023-07-13T02:16:56;99918.44;;;21.73;100.00
62124;BME280;48110;47.532;19.078;2023-07-13T02:19:59;99927.50;;;21.62;100.00
62124;BME280;48110;47.532;19.078;2023-07-13T02:23:02;99930.34;;;21.55;100.00
62124;BME280;48110;47.532;19.078;2023-07-13T02:26:05;99926.59;;;21.56;100.00
62124;BME280;48110;47.532;19.078;2023-07-13T02:29:08;99939.78;;;21.53;100.00
62124;BME280;48110;47.532;19.078;2023-07-13T02:32:10;99944.22;;;21.42;100.00
62124;BME280;48110;47.532;19.078;2023-07-13T02:35:14;99934.69;;;21.35;100.00
62124;BME280;48110;47.532;19.078;2023-07-13T02:38:17;99936.22;;;21.31;100.00
62124;BME280;48110;47.532;19.078;2023-07-13T02:41:20;99952.03;;;21.22;100.00
62124;BME280;48110;47.532;19.078;2023-07-13T02:44:22;99952.53;;;21.19;100.00
62124;BME280;48110;47.532;19.078;2023-07-13T02:47:25;99946.00;;;21.15;100.00
62124;BME280;48110;47.532;19.078;2023-07-13T02:50:29;99936.97;;;21.09;100.00
62124;BME280;48110;47.532;19.078;2023-07-13T02:53:32;99952.34;;;21.09;100.00
62124;BME280;48110;47.532;19.078;2023-07-13T02:56:34;99953.63;;;21.06;100.00
62124;BME280;48110;47.532;19.078;2023-07-13T02:59:38;99963.28;;;21.02;100.00
62124;BME280;48110;47.532;19.078;2023-07-13T03:02:41;99960.59;;;21.02;100.00
62124;BME280;48110;47.532;19.078;2023-07-13T03:05:45;99957.34;;;21.00;100.00
62124;BME280;48110;47.532;19.078;2023-07-13T03:08:53;99960.91;;;21.06;100.00
62124;BME280;48110;47.532;19.078;2023-07-13T03:11:57;99983.41;;;20.95;100.00
62124;BME280;48110;47.532;19.078;2023-07-13T03:15:01;99984.69;;;20.92;100.00
62124;BME280;48110;47.532;19.078;2023-07-13T03:18:05;99995.03;;;20.95;100.00
62124;BME280;48110;47.532;19.078;2023-07-13T03:21:08;99981.94;;;21.04;100.00
62124;BME280;48110;47.532;19.078;2023-07-13T03:24:12;99987.47;;;20.97;100.00
62124;BME280;48110;47.532;19.078;2023-07-13T03:27:16;99985.19;;;21.06;100.00
62124;BME280;48110;47.532;19.078;2023-07-13T03:30:20;99975.41;;;21.16;100.00
62124;BME280;48110;47.532;19.078;2023-07-13T03:33:23;99971.69;;;21.06;100.00
62124;BME280;48110;47.532;19.078;2023-07-13T03:36:28;99990.59;;;21.06;100.00
62124;BME280;48110;47.532;19.078;2023-07-13T03:39:32;99979.81;;;21.22;100.00
62124;BME280;48110;47.532;19.078;2023-07-13T03:42:35;99963.87;;;21.21;100.00
62124;BME280;48110;47.532;19.078;2023-07-13T03:45:38;99969.03;;;21.22;100.00
62124;BME280;48110;47.532;19.078;2023-07-13T03:48:44;99983.66;;;21.27;100.00
62124;BME280;48110;47.532;19.078;2023-07-13T03:51:47;99985.69;;;21.36;100.00
62124;BME280;48110;47.532;19.078;2023-07-13T03:54:54;99988.63;;;21.51;100.00
62124;BME280;48110;47.532;19.078;2023-07-13T03:57:59;100004.00;;;21.51;100.00
62124;BME280;48110;47.532;19.078;2023-07-13T04:01:05;99990.94;;;21.64;100.00
62124;BME280;48110;47.532;19.078;2023-07-13T04:04:08;99988.91;;;21.72;100.00
62124;BME280;48110;47.532;19.078;2023-07-13T04:07:11;99989.78;;;21.77;100.00
62124;BME280;48110;47.532;19.078;2023-07-13T04:10:15;99991.91;;;21.75;100.00
62124;BME280;48110;47.532;19.078;2023-07-13T04:13:18;100001.78;;;21.86;100.00
62124;BME280;48110;47.532;19.078;2023-07-13T04:16:21;100021.66;;;21.97;100.00
62124;BME280;48110;47.532;19.078;2023-07-13T04:19:24;100045.78;;;22.03;100.00
62124;BME280;48110;47.532;19.078;2023-07-13T04:22:27;100063.50;;;22.16;100.00
62124;BME280;48110;47.532;19.078;2023-07-13T04:25:30;100070.87;;;22.21;100.00
62124;BME280;48110;47.532;19.078;2023-07-13T04:28:34;100080.03;;;22.20;100.00
62124;BME280;48110;47.532;19.078;2023-07-13T04:31:37;100072.50;;;22.22;100.00
62124;BME280;48110;47.532;19.078;2023-07-13T04:34:40;100068.22;;;22.26;100.00
62124;BME280;48110;47.532;19.078;2023-07-13T04:37:43;100071.09;;;22.19;100.00
62124;BME280;48110;47.532;19.078;2023-07-13T04:40:46;100078.47;;;22.24;100.00
62124;BME280;48110;47.532;19.078;2023-07-13T04:43:50;100077.97;;;22.27;100.00
62124;BME280;48110;47.532;19.078;2023-07-13T04:46:53;100090.09;;;22.24;100.00
62124;BME280;48110;47.532;19.078;2023-07-13T04:49:56;100100.84;;;22.19;100.00
62124;BME280;48110;47.532;19.078;2023-07-13T04:53:00;100104.87;;;22.17;100.00
62124;BME280;48110;47.532;19.078;2023-07-13T04:56:03;100109.62;;;22.09;100.00
62124;BME280;48110;47.532;19.078;2023-07-13T04:59:09;100117.03;;;21.97;100.00
62124;BME280;48110;47.532;19.078;2023-07-13T05:02:12;100136.16;;;21.79;100.00
62124;BME280;48110;47.532;19.078;2023-07-13T05:05:15;100149.28;;;21.54;100.00
62124;BME280;48110;47.532;19.078;2023-07-13T05:08:18;100166.06;;;21.28;100.00
62124;BME280;48110;47.532;19.078;2023-07-13T05:11:21;100192.53;;;21.02;100.00
62124;BME280;48110;47.532;19.078;2023-07-13T05:14:24;100228.72;;;20.78;100.00
62124;BME280;48110;47.532;19.078;2023-07-13T05:17:27;100274.25;;;20.51;100.00
62124;BME280;48110;47.532;19.078;2023-07-13T05:20:30;100273.38;;;20.16;100.00
62124;BME280;48110;47.532;19.078;2023-07-13T05:23:35;100295.63;;;20.11;100.00
62124;BME280;48110;47.532;19.078;2023-07-13T05:26:38;100298.16;;;19.83;100.00
62124;BME280;48110;47.532;19.078;2023-07-13T05:29:41;100291.25;;;19.45;100.00
62124;BME280;48110;47.532;19.078;2023-07-13T05:32:44;100288.31;;;19.29;100.00
62124;BME280;48110;47.532;19.078;2023-07-13T05:35:48;100283.53;;;19.12;100.00
62124;BME280;48110;47.532;19.078;2023-07-13T05:38:51;100291.53;;;19.19;100.00
62124;BME280;48110;47.532;19.078;2023-07-13T05:41:54;100283.94;;;19.16;100.00
62124;BME280;48110;47.532;19.078;2023-07-13T05:44:58;100283.31;;;19.14;100.00
62124;BME280;48110;47.532;19.078;2023-07-13T05:48:03;100268.38;;;19.18;100.00
62124;BME280;48110;47.532;19.078;2023-07-13T05:51:06;100270.19;;;19.06;100.00
62124;BME280;48110;47.532;19.078;2023-07-13T05:54:10;100281.03;;;18.99;100.00
62124;BME280;48110;47.532;19.078;2023-07-13T05:57:13;100271.63;;;18.90;100.00
62124;BME280;48110;47.532;19.078;2023-07-13T06:00:16;100256.84;;;18.81;100.00
62124;BME280;48110;47.532;19.078;2023-07-13T06:03:19;100246.81;;;18.70;100.00
62124;BME280;48110;47.532;19.078;2023-07-13T06:06:22;100245.28;;;18.62;100.00
62124;BME280;48110;47.532;19.078;2023-07-13T06:09:29;100246.63;;;18.53;100.00
62124;BME280;48110;47.532;19.078;2023-07-13T06:12:31;100225.81;;;18.42;100.00
62124;BME280;48110;47.532;19.078;2023-07-13T06:15:35;100192.75;;;18.42;100.00
62124;BME280;48110;47.532;19.078;2023-07-13T06:18:38;100147.31;;;18.40;100.00
62124;BME280;48110;47.532;19.078;2023-07-13T06:21:42;100000.75;;;18.33;100.00
62124;BME280;48110;47.532;19.078;2023-07-13T06:24:45;99836.78;;;18.28;100.00
62124;BME280;48110;47.532;19.078;2023-07-13T06:27:48;99954.13;;;18.27;100.00
62124;BME280;48110;47.532;19.078;2023-07-13T06:30:51;99973.28;;;18.31;100.00
62124;BME280;48110;47.532;19.078;2023-07-13T06:33:55;99887.47;;;18.36;100.00
62124;BME280;48110;47.532;19.078;2023-07-13T06:36:57;99885.03;;;18.34;100.00
62124;BME280;48110;47.532;19.078;2023-07-13T06:40:01;99901.97;;;18.46;100.00
62124;BME280;48110;47.532;19.078;2023-07-13T06:43:03;99911.81;;;18.52;100.00
62124;BME280;48110;47.532;19.078;2023-07-13T06:46:07;99920.16;;;18.62;100.00
62124;BME280;48110;47.532;19.078;2023-07-13T06:49:09;99920.16;;;18.74;100.00
62124;BME280;48110;47.532;19.078;2023-07-13T06:52:13;99935.38;;;18.92;100.00
62124;BME280;48110;47.532;19.078;2023-07-13T06:55:16;99914.34;;;19.00;100.00
62124;BME280;48110;47.532;19.078;2023-07-13T06:58:19;99905.22;;;19.13;100.00
62124;BME280;48110;47.532;19.078;2023-07-13T07:01:22;99905.31;;;19.30;100.00
62124;BME280;48110;47.532;19.078;2023-07-13T07:04:25;99928.00;;;19.57;100.00
62124;BME280;48110;47.532;19.078;2023-07-13T07:07:28;99904.00;;;19.67;100.00
62124;BME280;48110;47.532;19.078;2023-07-13T07:10:31;99910.59;;;20.16;100.00
62124;BME280;48110;47.532;19.078;2023-07-13T07:13:34;99925.06;;;20.55;100.00
62124;BME280;48110;47.532;19.078;2023-07-13T07:16:38;99947.53;;;20.94;100.00
62124;BME280;48110;47.532;19.078;2023-07-13T07:19:40;100025.72;;;21.11;100.00
62124;BME280;48110;47.532;19.078;2023-07-13T07:22:44;100073.66;;;21.20;100.00
62124;BME280;48110;47.532;19.078;2023-07-13T07:25:47;100051.09;;;21.60;100.00
62124;BME280;48110;47.532;19.078;2023-07-13T07:28:50;100080.75;;;21.93;100.00
62124;BME280;48110;47.532;19.078;2023-07-13T07:32:13;100073.88;;;22.02;100.00
62124;BME280;48110;47.532;19.078;2023-07-13T07:35:37;100097.75;;;22.10;100.00
62124;BME280;48110;47.532;19.078;2023-07-13T07:39:00;100114.78;;;22.54;100.00
62124;BME280;48110;47.532;19.078;2023-07-13T07:42:03;100124.87;;;21.82;100.00
62124;BME280;48110;47.532;19.078;2023-07-13T07:45:07;100121.41;;;22.03;100.00
62124;BME280;48110;47.532;19.078;2023-07-13T07:48:10;100122.81;;;22.28;100.00
62124;BME280;48110;47.532;19.078;2023-07-13T07:51:13;100132.09;;;22.53;100.00
62124;BME280;48110;47.532;19.078;2023-07-13T07:54:17;100129.34;;;22.70;100.00
62124;BME280;48110;47.532;19.078;2023-07-13T07:57:40;100127.16;;;23.21;100.00
62124;BME280;48110;47.532;19.078;2023-07-13T08:00:46;100133.66;;;22.93;100.00
62124;BME280;48110;47.532;19.078;2023-07-13T08:03:52;100141.06;;;23.34;100.00
62124;BME280;48110;47.532;19.078;2023-07-13T08:06:58;100136.94;;;23.54;100.00
62124;BME280;48110;47.532;19.078;2023-07-13T08:10:02;100149.37;;;24.23;100.00
62124;BME280;48110;47.532;19.078;2023-07-13T08:13:04;100137.53;;;23.98;100.00
62124;BME280;48110;47.532;19.078;2023-07-13T08:16:10;100144.44;;;24.73;100.00
62124;BME280;48110;47.532;19.078;2023-07-13T08:19:14;100125.97;;;24.69;100.00
62124;BME280;48110;47.532;19.078;2023-07-13T08:22:17;100133.78;;;24.56;100.00
62124;BME280;48110;47.532;19.078;2023-07-13T08:25:20;100137.16;;;24.83;100.00
62124;BME280;48110;47.532;19.078;2023-07-13T08:28:24;100143.22;;;25.10;100.00
62124;BME280;48110;47.532;19.078;2023-07-13T08:31:28;100151.63;;;25.09;100.00
62124;BME280;48110;47.532;19.078;2023-07-13T08:34:31;100146.53;;;25.73;100.00
62124;BME280;48110;47.532;19.078;2023-07-13T08:37:34;100144.00;;;26.37;100.00
62124;BME280;48110;47.532;19.078;2023-07-13T08:40:39;100143.69;;;28.05;99.71
62124;BME280;48110;47.532;19.078;2023-07-13T08:43:46;100136.34;;;28.95;96.47
62124;BME280;48110;47.532;19.078;2023-07-13T08:46:52;100134.28;;;28.45;86.77
62124;BME280;48110;47.532;19.078;2023-07-13T08:49:56;100143.38;;;28.59;91.89
62124;BME280;48110;47.532;19.078;2023-07-13T08:53:02;100144.50;;;28.05;89.60
62124;BME280;48110;47.532;19.078;2023-07-13T08:56:14;100138.22;;;27.81;91.64
62124;BME280;48110;47.532;19.078;2023-07-13T08:59:24;100137.06;;;27.58;92.54
62124;BME280;48110;47.532;19.078;2023-07-13T09:03:20;100137.28;;;26.79;100.00
62124;BME280;48110;47.532;19.078;2023-07-13T09:05:58;100139.38;;;26.33;100.00
62124;BME280;48110;47.532;19.078;2023-07-13T09:09:09;100144.91;;;25.87;100.00
62124;BME280;48110;47.532;19.078;2023-07-13T09:12:35;100136.47;;;25.38;100.00
62124;BME280;48110;47.532;19.078;2023-07-13T09:15:46;100148.97;;;25.85;100.00
62124;BME280;48110;47.532;19.078;2023-07-13T09:18:54;100140.28;;;25.78;100.00
62124;BME280;48110;47.532;19.078;2023-07-13T09:21:58;100142.37;;;27.74;96.54
62124;BME280;48110;47.532;19.078;2023-07-13T09:25:30;100146.19;;;29.99;73.17
62124;BME280;48110;47.532;19.078;2023-07-13T09:28:37;100142.94;;;29.97;70.17
62124;BME280;48110;47.532;19.078;2023-07-13T09:31:47;100149.19;;;28.95;75.64
62124;BME280;48110;47.532;19.078;2023-07-13T09:34:53;100145.47;;;28.20;81.10
62124;BME280;48110;47.532;19.078;2023-07-13T09:37:59;100157.78;;;27.15;91.47
62124;BME280;48110;47.532;19.078;2023-07-13T09:44:16;100162.25;;;26.17;100.00
62124;BME280;48110;47.532;19.078;2023-07-13T09:47:31;100151.94;;;25.99;100.00
62124;BME280;48110;47.532;19.078;2023-07-13T09:50:34;100170.19;;;25.73;100.00
62124;BME280;48110;47.532;19.078;2023-07-13T09:53:37;100178.22;;;26.44;100.00
62124;BME280;48110;47.532;19.078;2023-07-13T09:56:40;100168.09;;;26.64;98.74
62124;BME280;48110;47.532;19.078;2023-07-13T09:59:46;100169.91;;;27.72;90.70
62124;BME280;48110;47.532;19.078;2023-07-13T10:03:31;100172.84;;;27.42;92.62
62124;BME280;48110;47.532;19.078;2023-07-13T10:06:40;100168.22;;;28.34;82.95
62124;BME280;48110;47.532;19.078;2023-07-13T10:09:45;100154.97;;;29.12;73.28
62124;BME280;48110;47.532;19.078;2023-07-13T10:12:49;100162.69;;;29.94;67.02
62124;BME280;48110;47.532;19.078;2023-07-13T10:15:54;100171.56;;;30.45;64.04
62124;BME280;48110;47.532;19.078;2023-07-13T10:19:08;100172.28;;;29.59;65.55
62124;BME280;48110;47.532;19.078;2023-07-13T10:25:39;100171.34;;;31.10;58.24
62124;BME280;48110;47.532;19.078;2023-07-13T10:28:52;100162.22;;;30.87;59.83
62124;BME280;48110;47.532;19.078;2023-07-13T10:31:55;100170.50;;;31.45;58.70
62124;BME280;48110;47.532;19.078;2023-07-13T10:35:00;100173.50;;;32.90;52.98
62124;BME280;48110;47.532;19.078;2023-07-13T10:38:10;100170.47;;;33.17;49.27
62124;BME280;48110;47.532;19.078;2023-07-13T10:41:20;100176.37;;;32.06;51.23
62124;BME280;48110;47.532;19.078;2023-07-13T10:44:27;100177.34;;;31.34;53.74
62124;BME280;48110;47.532;19.078;2023-07-13T10:47:31;100167.81;;;31.76;52.92
62124;BME280;48110;47.532;19.078;2023-07-13T10:50:37;100178.84;;;33.03;51.35
62124;BME280;48110;47.532;19.078;2023-07-13T10:53:40;100181.31;;;33.56;50.37
62124;BME280;48110;47.532;19.078;2023-07-13T10:56:44;100175.41;;;31.71;51.32
62124;BME280;48110;47.532;19.078;2023-07-13T11:03:13;100186.66;;;32.53;50.45
62124;BME280;48110;47.532;19.078;2023-07-13T11:06:37;100166.31;;;31.48;50.32
62124;BME280;48110;47.532;19.078;2023-07-13T11:09:52;100168.53;;;33.26;47.14
62124;BME280;48110;47.532;19.078;2023-07-13T11:12:55;100165.38;;;34.05;45.21
62124;BME280;48110;47.532;19.078;2023-07-13T11:15:59;100158.13;;;32.71;46.78
62124;BME280;48110;47.532;19.078;2023-07-13T11:22:12;100171.56;;;31.36;50.06
62124;BME280;48110;47.532;19.078;2023-07-13T11:28:32;100161.75;;;33.32;45.87
62124;BME280;48110;47.532;19.078;2023-07-13T11:31:36;100174.97;;;33.90;47.62
62124;BME280;48110;47.532;19.078;2023-07-13T11:34:39;100160.91;;;33.75;44.42
62124;BME280;48110;47.532;19.078;2023-07-13T11:37:44;100156.66;;;33.94;44.09
62124;BME280;48110;47.532;19.078;2023-07-13T11:40:50;100154.94;;;32.87;46.20
62124;BME280;48110;47.532;19.078;2023-07-13T11:47:22;100144.75;;;35.94;38.53
62124;BME280;48110;47.532;19.078;2023-07-13T11:50:26;100160.03;;;35.26;38.73
62124;BME280;48110;47.532;19.078;2023-07-13T11:53:35;100155.47;;;34.13;41.29
62124;BME280;48110;47.532;19.078;2023-07-13T11:56:40;100152.03;;;35.33;40.08
62124;BME280;48110;47.532;19.078;2023-07-13T11:59:43;100157.69;;;34.28;41.12
62124;BME280;48110;47.532;19.078;2023-07-13T12:02:49;100161.09;;;35.87;39.54
62124;BME280;48110;47.532;19.078;2023-07-13T12:09:11;100151.84;;;35.83;38.44
62124;BME280;48110;47.532;19.078;2023-07-13T12:12:22;100148.56;;;35.15;39.49
62124;BME280;48110;47.532;19.078;2023-07-13T12:15:45;100146.00;;;34.69;41.06
62124;BME280;48110;47.532;19.078;2023-07-13T12:18:55;100137.97;;;35.59;38.63
62124;BME280;48110;47.532;19.078;2023-07-13T12:21:59;100140.72;;;34.84;40.05
62124;BME280;48110;47.532;19.078;2023-07-13T12:25:02;100136.22;;;35.54;39.16
62124;BME280;48110;47.532;19.078;2023-07-13T12:29:06;100146.81;;;34.69;40.91
62124;BME280;48110;47.532;19.078;2023-07-13T12:31:46;100155.47;;;34.21;41.10
62124;BME280;48110;47.532;19.078;2023-07-13T12:34:55;100135.47;;;36.11;38.25
62124;BME280;48110;47.532;19.078;2023-07-13T12:37:59;100134.28;;;35.55;39.08
62124;BME280;48110;47.532;19.078;2023-07-13T12:41:03;100133.13;;;35.56;38.76
62124;BME280;48110;47.532;19.078;2023-07-13T12:44:11;100125.75;;;35.48;38.83
62124;BME280;48110;47.532;19.078;2023-07-13T12:47:16;100123.28;;;36.73;38.26
62124;BME280;48110;47.532;19.078;2023-07-13T12:50:21;100125.25;;;36.48;37.50
62124;BME280;48110;47.532;19.078;2023-07-13T12:53:29;100128.94;;;36.40;37.29
62124;BME280;48110;47.532;19.078;2023-07-13T12:56:36;100119.13;;;34.57;40.42
62124;BME280;48110;47.532;19.078;2023-07-13T12:59:39;100118.84;;;37.08;35.50
62124;BME280;48110;47.532;19.078;2023-07-13T13:02:42;100121.25;;;36.97;34.77
62124;BME280;48110;47.532;19.078;2023-07-13T13:05:46;100109.97;;;35.69;36.96
62124;BME280;48110;47.532;19.078;2023-07-13T13:08:55;100117.66;;;38.59;33.55
62124;BME280;48110;47.532;19.078;2023-07-13T13:12:00;100130.22;;;38.06;34.66
62124;BME280;48110;47.532;19.078;2023-07-13T13:15:04;100132.47;;;37.29;33.95
62124;BME280;48110;47.532;19.078;2023-07-13T13:18:19;100122.44;;;37.80;34.89
62124;BME280;48110;47.532;19.078;2023-07-13T13:21:24;100114.75;;;39.06;32.50
62124;BME280;48110;47.532;19.078;2023-07-13T13:24:28;100103.94;;;37.84;33.47
62124;BME280;48110;47.532;19.078;2023-07-13T13:27:31;100100.12;;;37.05;34.56
62124;BME280;48110;47.532;19.078;2023-07-13T13:30:34;100120.03;;;39.11;32.09
62124;BME280;48110;47.532;19.078;2023-07-13T13:33:39;100102.94;;;38.74;32.38
62124;BME280;48110;47.532;19.078;2023-07-13T13:36:47;100110.94;;;38.09;33.53
62124;BME280;48110;47.532;19.078;2023-07-13T13:39:54;100105.88;;;36.72;34.56
62124;BME280;48110;47.532;19.078;2023-07-13T13:43:21;100108.63;;;37.24;34.10
62124;BME280;48110;47.532;19.078;2023-07-13T13:46:28;100097.97;;;36.34;35.57
62124;BME280;48110;47.532;19.078;2023-07-13T13:49:32;100098.41;;;36.61;34.88
62124;BME280;48110;47.532;19.078;2023-07-13T13:52:35;100090.25;;;36.64;35.22
62124;BME280;48110;47.532;19.078;2023-07-13T13:55:39;100093.88;;;36.80;35.10
62124;BME280;48110;47.532;19.078;2023-07-13T13:58:44;100099.91;;;36.58;35.20
62124;BME280;48110;47.532;19.078;2023-07-13T14:01:48;100094.09;;;34.92;38.05
62124;BME280;48110;47.532;19.078;2023-07-13T14:05:02;100088.09;;;35.10;38.74
62124;BME280;48110;47.532;19.078;2023-07-13T14:08:14;100088.50;;;35.54;37.54
62124;BME280;48110;47.532;19.078;2023-07-13T14:11:20;100110.25;;;34.14;40.77
62124;BME280;48110;47.532;19.078;2023-07-13T14:14:24;100093.47;;;32.65;43.79
62124;BME280;48110;47.532;19.078;2023-07-13T14:17:30;100100.28;;;33.02;43.06
62124;BME280;48110;47.532;19.078;2023-07-13T14:20:34;100100.28;;;32.85;42.94
62124;BME280;48110;47.532;19.078;2023-07-13T14:23:37;100093.72;;;31.99;45.09
62124;BME280;48110;47.532;19.078;2023-07-13T14:26:42;100090.88;;;30.29;49.80
62124;BME280;48110;47.532;19.078;2023-07-13T14:29:48;100098.37;;;30.51;50.12
62124;BME280;48110;47.532;19.078;2023-07-13T14:33:11;100108.34;;;29.87;51.71
62124;BME280;48110;47.532;19.078;2023-07-13T14:36:36;100097.72;;;29.40;54.40
62124;BME280;48110;47.532;19.078;2023-07-13T14:39:43;100108.97;;;29.84;54.83
62124;BME280;48110;47.532;19.078;2023-07-13T14:42:47;100116.94;;;29.67;54.57
62124;BME280;48110;47.532;19.078;2023-07-13T14:45:50;100119.44;;;29.63;55.49
62124;BME280;48110;47.532;19.078;2023-07-13T14:49:04;100122.97;;;29.50;56.50
62124;BME280;48110;47.532;19.078;2023-07-13T14:52:26;100126.47;;;29.37;56.40
62124;BME280;48110;47.532;19.078;2023-07-13T14:55:30;100131.25;;;29.08;57.45
62124;BME280;48110;47.532;19.078;2023-07-13T14:58:33;100138.50;;;29.17;57.60
62124;BME280;48110;47.532;19.078;2023-07-13T15:01:37;100142.25;;;29.40;57.34
62124;BME280;48110;47.532;19.078;2023-07-13T15:04:41;100131.22;;;29.77;54.70
62124;BME280;48110;47.532;19.078;2023-07-13T15:07:45;100121.87;;;29.65;58.12
62124;BME280;48110;47.532;19.078;2023-07-13T15:10:48;100115.25;;;29.85;56.59
62124;BME280;48110;47.532;19.078;2023-07-13T15:13:51;100118.41;;;29.08;57.26
62124;BME280;48110;47.532;19.078;2023-07-13T15:16:56;100125.03;;;29.21;57.43
62124;BME280;48110;47.532;19.078;2023-07-13T15:19:59;100151.84;;;29.00;55.85
62124;BME280;48110;47.532;19.078;2023-07-13T15:23:02;100143.81;;;28.66;58.18
62124;BME280;48110;47.532;19.078;2023-07-13T15:26:11;100151.72;;;28.68;56.76
62124;BME280;48110;47.532;19.078;2023-07-13T15:29:16;100142.47;;;28.45;56.83
62124;BME280;48110;47.532;19.078;2023-07-13T15:32:19;100143.03;;;28.18;57.76
62124;BME280;48110;47.532;19.078;2023-07-13T15:35:26;100137.28;;;27.91;58.89
62124;BME280;48110;47.532;19.078;2023-07-13T15:38:31;100135.00;;;28.03;57.99
62124;BME280;48110;47.532;19.078;2023-07-13T15:41:34;100131.87;;;27.86;59.05
62124;BME280;48110;47.532;19.078;2023-07-13T15:44:37;100126.75;;;27.79;60.47
62124;BME280;48110;47.532;19.078;2023-07-13T15:47:40;100119.31;;;27.90;62.47
62124;BME280;48110;47.532;19.078;2023-07-13T15:51:00;100116.31;;;27.91;59.80
62124;BME280;48110;47.532;19.078;2023-07-13T15:54:04;100122.84;;;27.61;61.59
62124;BME280;48110;47.532;19.078;2023-07-13T15:57:09;100106.19;;;27.68;63.32
62124;BME280;48110;47.532;19.078;2023-07-13T16:03:23;100107.59;;;27.89;58.75
62124;BME280;48110;47.532;19.078;2023-07-13T16:06:32;100121.59;;;28.06;59.00
62124;BME280;48110;47.532;19.078;2023-07-13T16:09:38;100131.78;;;27.96;58.16
62124;BME280;48110;47.532;19.078;2023-07-13T16:12:44;100146.56;;;27.90;58.78
62124;BME280;48110;47.532;19.078;2023-07-13T16:15:47;100148.34;;;27.76;59.47
62124;BME280;48110;47.532;19.078;2023-07-13T16:18:56;100154.63;;;27.76;60.03
62124;BME280;48110;47.532;19.078;2023-07-13T16:22:00;100171.06;;;27.66;60.47
62124;BME280;48110;47.532;19.078;2023-07-13T16:25:12;100169.03;;;27.43;61.66